sensor_id;sensor_type;location;lat;lon;timestamp;P1;durP1;ratioP1;P2;durP2;ratioP2
74152;SDS011;62505;46.070;14.492;2023-06-10T00:00:23;3.50;;;2.72;;
74152;SDS011;62505;46.070;14.492;2023-06-10T00:02:49;3.00;;;2.67;;
74152;SDS011;62505;46.070;14.492;2023-06-10T00:05:16;4.85;;;2.88;;
74152;SDS011;62505;46.070;14.492;2023-06-10T00:07:46;2.75;;;2.45;;
74152;SDS011;62505;46.070;14.492;2023-06-10T00:10:13;3.20;;;2.80;;
74152;SDS011;62505;46.070;14.492;2023-06-10T00:12:42;2.88;;;2.45;;
74152;SDS011;62505;46.070;14.492;2023-06-10T00:15:09;3.60;;;2.72;;
74152;SDS011;62505;46.070;14.492;2023-06-10T00:17:36;5.63;;;2.95;;
74152;SDS011;62505;46.070;14.492;2023-06-10T00:20:04;3.08;;;2.72;;
74152;SDS011;62505;46.070;14.492;2023-06-10T00:22:34;4.93;;;2.85;;
74152;SDS011;62505;46.070;14.492;2023-06-10T00:25:01;3.25;;;2.72;;
74152;SDS011;62505;46.070;14.492;2023-06-10T00:27:29;3.75;;;2.50;;
74152;SDS011;62505;46.070;14.492;2023-06-10T00:30:01;5.95;;;3.33;;
74152;SDS011;62505;46.070;14.492;2023-06-10T00:32:31;4.80;;;2.70;;
74152;SDS011;62505;46.070;14.492;2023-06-10T00:34:58;3.30;;;2.60;;
74152;SDS011;62505;46.070;14.492;2023-06-10T00:37:25;3.80;;;2.70;;
74152;SDS011;62505;46.070;14.492;2023-06-10T00:39:53;3.40;;;2.60;;
74152;SDS011;62505;46.070;14.492;2023-06-10T00:42:20;2.83;;;2.47;;
74152;SDS011;62505;46.070;14.492;2023-06-10T00:44:49;3.83;;;2.90;;
74152;SDS011;62505;46.070;14.492;2023-06-10T00:47:18;3.00;;;2.60;;
74152;SDS011;62505;46.070;14.492;2023-06-10T00:49:45;4.00;;;2.70;;
74152;SDS011;62505;46.070;14.492;2023-06-10T00:52:13;3.53;;;2.42;;
74152;SDS011;62505;46.070;14.492;2023-06-10T00:54:40;3.25;;;2.33;;
74152;SDS011;62505;46.070;14.492;2023-06-10T00:57:08;3.95;;;2.53;;
74152;SDS011;62505;46.070;14.492;2023-06-10T00:59:35;5.00;;;2.70;;
74152;SDS011;62505;46.070;14.492;2023-06-10T01:02:03;2.97;;;2.60;;
74152;SDS011;62505;46.070;14.492;2023-06-10T01:04:31;4.00;;;2.88;;
74152;SDS011;62505;46.070;14.492;2023-06-10T01:07:00;2.72;;;2.50;;
74152;SDS011;62505;46.070;14.492;2023-06-10T01:09:38;5.68;;;2.70;;
74152;SDS011;62505;46.070;14.492;2023-06-10T01:12:12;2.80;;;2.50;;
74152;SDS011;62505;46.070;14.492;2023-06-10T01:14:45;2.83;;;2.40;;
74152;SDS011;62505;46.070;14.492;2023-06-10T01:17:13;4.18;;;2.50;;
74152;SDS011;62505;46.070;14.492;2023-06-10T01:19:44;4.65;;;2.85;;
74152;SDS011;62505;46.070;14.492;2023-06-10T01:22:21;2.70;;;2.35;;
74152;SDS011;62505;46.070;14.492;2023-06-10T01:24:49;2.88;;;2.45;;
74152;SDS011;62505;46.070;14.492;2023-06-10T01:27:16;3.30;;;2.70;;
74152;SDS011;62505;46.070;14.492;2023-06-10T01:29:50;6.75;;;2.85;;
74152;SDS011;62505;46.070;14.492;2023-06-10T01:32:22;4.18;;;2.65;;
74152;SDS011;62505;46.070;14.492;2023-06-10T01:34:54;3.92;;;2.60;;
74152;SDS011;62505;46.070;14.492;2023-06-10T01:37:24;2.47;;;2.28;;
74152;SDS011;62505;46.070;14.492;2023-06-10T01:39:53;4.90;;;2.92;;
74152;SDS011;62505;46.070;14.492;2023-06-10T01:42:22;3.17;;;2.63;;
74152;SDS011;62505;46.070;14.492;2023-06-10T01:44:50;2.55;;;2.25;;
74152;SDS011;62505;46.070;14.492;2023-06-10T01:47:17;4.25;;;2.65;;
74152;SDS011;62505;46.070;14.492;2023-06-10T01:49:44;2.70;;;2.50;;
74152;SDS011;62505;46.070;14.492;2023-06-10T01:52:11;3.00;;;2.70;;
74152;SDS011;62505;46.070;14.492;2023-06-10T01:54:40;3.58;;;2.72;;
74152;SDS011;62505;46.070;14.492;2023-06-10T01:57:06;2.83;;;2.53;;
74152;SDS011;62505;46.070;14.492;2023-06-10T01:59:33;3.67;;;2.67;;
74152;SDS011;62505;46.070;14.492;2023-06-10T02:02:01;4.40;;;2.80;;
74152;SDS011;62505;46.070;14.492;2023-06-10T02:04:28;3.55;;;2.70;;
74152;SDS011;62505;46.070;14.492;2023-06-10T02:06:55;4.25;;;2.65;;
74152;SDS011;62505;46.070;14.492;2023-06-10T02:09:22;3.30;;;2.60;;
74152;SDS011;62505;46.070;14.492;2023-06-10T02:11:51;3.08;;;2.78;;
74152;SDS011;62505;46.070;14.492;2023-06-10T02:14:17;2.88;;;2.40;;
74152;SDS011;62505;46.070;14.492;2023-06-10T02:16:44;2.95;;;2.65;;
74152;SDS011;62505;46.070;14.492;2023-06-10T02:19:11;3.45;;;2.85;;
74152;SDS011;62505;46.070;14.492;2023-06-10T02:21:38;3.00;;;2.47;;
74152;SDS011;62505;46.070;14.492;2023-06-10T02:24:05;2.55;;;2.20;;
74152;SDS011;62505;46.070;14.492;2023-06-10T02:26:33;3.08;;;2.55;;
74152;SDS011;62505;46.070;14.492;2023-06-10T02:29:01;3.75;;;2.75;;
74152;SDS011;62505;46.070;14.492;2023-06-10T02:31:28;3.17;;;2.83;;
74152;SDS011;62505;46.070;14.492;2023-06-10T02:33:55;3.60;;;2.67;;
74152;SDS011;62505;46.070;14.492;2023-06-10T02:36:22;2.60;;;2.40;;
74152;SDS011;62505;46.070;14.492;2023-06-10T02:38:49;3.20;;;2.40;;
74152;SDS011;62505;46.070;14.492;2023-06-10T02:41:16;4.15;;;2.22;;
74152;SDS011;62505;46.070;14.492;2023-06-10T02:43:42;4.63;;;2.50;;
74152;SDS011;62505;46.070;14.492;2023-06-10T02:46:11;3.63;;;2.80;;
74152;SDS011;62505;46.070;14.492;2023-06-10T02:48:40;3.45;;;2.53;;
74152;SDS011;62505;46.070;14.492;2023-06-10T02:51:08;3.08;;;2.53;;
74152;SDS011;62505;46.070;14.492;2023-06-10T02:53:35;4.93;;;2.90;;
74152;SDS011;62505;46.070;14.492;2023-06-10T02:56:02;3.35;;;2.58;;
74152;SDS011;62505;46.070;14.492;2023-06-10T02:58:29;3.70;;;2.80;;
74152;SDS011;62505;46.070;14.492;2023-06-10T03:00:56;3.05;;;2.60;;
74152;SDS011;62505;46.070;14.492;2023-06-10T03:03:25;3.30;;;2.70;;
74152;SDS011;62505;46.070;14.492;2023-06-10T03:05:52;3.42;;;2.60;;
74152;SDS011;62505;46.070;14.492;2023-06-10T03:08:19;4.70;;;2.50;;
74152;SDS011;62505;46.070;14.492;2023-06-10T03:10:46;4.78;;;2.45;;
74152;SDS011;62505;46.070;14.492;2023-06-10T03:13:13;3.70;;;2.85;;
74152;SDS011;62505;46.070;14.492;2023-06-10T03:15:40;3.55;;;2.65;;
74152;SDS011;62505;46.070;14.492;2023-06-10T03:18:07;3.42;;;2.92;;
74152;SDS011;62505;46.070;14.492;2023-06-10T03:20:35;3.00;;;2.50;;
74152;SDS011;62505;46.070;14.492;2023-06-10T03:23:03;4.53;;;2.88;;
74152;SDS011;62505;46.070;14.492;2023-06-10T03:25:31;3.35;;;2.67;;
74152;SDS011;62505;46.070;14.492;2023-06-10T03:27:58;6.57;;;2.40;;
74152;SDS011;62505;46.070;14.492;2023-06-10T03:30:25;5.13;;;2.97;;
74152;SDS011;62505;46.070;14.492;2023-06-10T03:32:51;3.95;;;2.55;;
74152;SDS011;62505;46.070;14.492;2023-06-10T03:35:18;2.50;;;2.25;;
74152;SDS011;62505;46.070;14.492;2023-06-10T03:37:47;3.53;;;2.15;;
74152;SDS011;62505;46.070;14.492;2023-06-10T03:40:14;3.05;;;2.40;;
74152;SDS011;62505;46.070;14.492;2023-06-10T03:42:41;3.38;;;2.40;;
74152;SDS011;62505;46.070;14.492;2023-06-10T03:45:09;3.40;;;2.75;;
74152;SDS011;62505;46.070;14.492;2023-06-10T03:47:37;3.05;;;2.28;;
74152;SDS011;62505;46.070;14.492;2023-06-10T03:50:05;4.25;;;2.30;;
74152;SDS011;62505;46.070;14.492;2023-06-10T03:52:34;3.00;;;2.60;;
74152;SDS011;62505;46.070;14.492;2023-06-10T03:55:02;2.45;;;2.15;;
74152;SDS011;62505;46.070;14.492;2023-06-10T03:57:30;2.95;;;2.55;;
74152;SDS011;62505;46.070;14.492;2023-06-10T03:59:57;3.42;;;2.50;;
74152;SDS011;62505;46.070;14.492;2023-06-10T04:02:24;2.95;;;2.45;;
74152;SDS011;62505;46.070;14.492;2023-06-10T04:04:51;4.13;;;2.60;;
74152;SDS011;62505;46.070;14.492;2023-06-10T04:07:18;3.95;;;2.72;;
74152;SDS011;62505;46.070;14.492;2023-06-10T04:09:46;3.10;;;2.80;;
74152;SDS011;62505;46.070;14.492;2023-06-10T04:12:14;3.75;;;2.50;;
74152;SDS011;62505;46.070;14.492;2023-06-10T04:14:41;3.13;;;2.25;;
74152;SDS011;62505;46.070;14.492;2023-06-10T04:17:08;3.63;;;2.67;;
74152;SDS011;62505;46.070;14.492;2023-06-10T04:19:35;3.53;;;2.40;;
74152;SDS011;62505;46.070;14.492;2023-06-10T04:22:02;3.25;;;2.40;;
74152;SDS011;62505;46.070;14.492;2023-06-10T04:24:30;3.38;;;2.60;;
74152;SDS011;62505;46.070;14.492;2023-06-10T04:26:57;3.33;;;2.50;;
74152;SDS011;62505;46.070;14.492;2023-06-10T04:29:25;3.95;;;2.15;;
74152;SDS011;62505;46.070;14.492;2023-06-10T04:31:52;2.75;;;2.30;;
74152;SDS011;62505;46.070;14.492;2023-06-10T04:34:19;2.45;;;2.25;;
74152;SDS011;62505;46.070;14.492;2023-06-10T04:36:45;3.22;;;2.63;;
74152;SDS011;62505;46.070;14.492;2023-06-10T04:39:12;2.83;;;2.53;;
74152;SDS011;62505;46.070;14.492;2023-06-10T04:41:41;2.85;;;2.60;;
74152;SDS011;62505;46.070;14.492;2023-06-10T04:44:08;3.10;;;2.80;;
74152;SDS011;62505;46.070;14.492;2023-06-10T04:46:37;2.85;;;2.40;;
74152;SDS011;62505;46.070;14.492;2023-06-10T04:49:04;2.70;;;2.40;;
74152;SDS011;62505;46.070;14.492;2023-06-10T04:51:31;4.00;;;2.55;;
74152;SDS011;62505;46.070;14.492;2023-06-10T04:53:58;3.30;;;2.58;;
74152;SDS011;62505;46.070;14.492;2023-06-10T04:56:27;2.45;;;2.25;;
74152;SDS011;62505;46.070;14.492;2023-06-10T04:58:55;3.05;;;2.40;;
74152;SDS011;62505;46.070;14.492;2023-06-10T05:01:22;3.15;;;2.85;;
74152;SDS011;62505;46.070;14.492;2023-06-10T05:03:50;2.65;;;2.45;;
74152;SDS011;62505;46.070;14.492;2023-06-10T05:06:17;3.17;;;2.60;;
74152;SDS011;62505;46.070;14.492;2023-06-10T05:08:44;2.75;;;2.47;;
74152;SDS011;62505;46.070;14.492;2023-06-10T05:11:11;3.15;;;2.80;;
74152;SDS011;62505;46.070;14.492;2023-06-10T05:13:37;4.88;;;2.83;;
74152;SDS011;62505;46.070;14.492;2023-06-10T05:16:05;2.60;;;2.20;;
74152;SDS011;62505;46.070;14.492;2023-06-10T05:18:32;3.55;;;2.63;;
74152;SDS011;62505;46.070;14.492;2023-06-10T05:21:02;3.80;;;2.90;;
74152;SDS011;62505;46.070;14.492;2023-06-10T05:23:28;2.72;;;2.50;;
74152;SDS011;62505;46.070;14.492;2023-06-10T05:25:55;2.60;;;2.40;;
74152;SDS011;62505;46.070;14.492;2023-06-10T05:28:23;4.22;;;3.10;;
74152;SDS011;62505;46.070;14.492;2023-06-10T05:30:50;2.63;;;2.33;;
74152;SDS011;62505;46.070;14.492;2023-06-10T05:33:17;3.50;;;2.75;;
74152;SDS011;62505;46.070;14.492;2023-06-10T05:35:44;3.67;;;2.70;;
74152;SDS011;62505;46.070;14.492;2023-06-10T05:38:12;3.28;;;2.95;;
74152;SDS011;62505;46.070;14.492;2023-06-10T05:40:39;3.78;;;2.70;;
74152;SDS011;62505;46.070;14.492;2023-06-10T05:43:06;3.00;;;2.70;;
74152;SDS011;62505;46.070;14.492;2023-06-10T05:45:34;3.53;;;2.65;;
74152;SDS011;62505;46.070;14.492;2023-06-10T05:48:01;4.10;;;2.50;;
74152;SDS011;62505;46.070;14.492;2023-06-10T05:50:28;3.13;;;2.40;;
74152;SDS011;62505;46.070;14.492;2023-06-10T05:52:55;3.50;;;2.60;;
74152;SDS011;62505;46.070;14.492;2023-06-10T05:55:24;3.90;;;3.00;;
74152;SDS011;62505;46.070;14.492;2023-06-10T05:57:59;5.25;;;2.85;;
74152;SDS011;62505;46.070;14.492;2023-06-10T06:00:29;6.53;;;3.60;;
74152;SDS011;62505;46.070;14.492;2023-06-10T06:02:56;5.43;;;3.40;;
74152;SDS011;62505;46.070;14.492;2023-06-10T06:05:24;5.38;;;3.50;;
74152;SDS011;62505;46.070;14.492;2023-06-10T06:07:50;5.00;;;3.13;;
74152;SDS011;62505;46.070;14.492;2023-06-10T06:10:18;6.80;;;3.58;;
74152;SDS011;62505;46.070;14.492;2023-06-10T06:12:46;5.63;;;3.72;;
74152;SDS011;62505;46.070;14.492;2023-06-10T06:15:13;4.85;;;3.42;;
74152;SDS011;62505;46.070;14.492;2023-06-10T06:17:40;5.70;;;3.38;;
74152;SDS011;62505;46.070;14.492;2023-06-10T06:20:07;5.57;;;2.92;;
74152;SDS011;62505;46.070;14.492;2023-06-10T06:22:34;5.53;;;3.42;;
74152;SDS011;62505;46.070;14.492;2023-06-10T06:25:01;6.53;;;3.60;;
74152;SDS011;62505;46.070;14.492;2023-06-10T06:27:28;6.63;;;3.33;;
74152;SDS011;62505;46.070;14.492;2023-06-10T06:29:57;6.22;;;3.92;;
74152;SDS011;62505;46.070;14.492;2023-06-10T06:32:24;4.70;;;3.65;;
74152;SDS011;62505;46.070;14.492;2023-06-10T06:34:52;6.43;;;4.22;;
74152;SDS011;62505;46.070;14.492;2023-06-10T06:37:20;6.93;;;4.10;;
74152;SDS011;62505;46.070;14.492;2023-06-10T06:39:49;7.47;;;3.88;;
74152;SDS011;62505;46.070;14.492;2023-06-10T06:42:16;7.30;;;3.47;;
74152;SDS011;62505;46.070;14.492;2023-06-10T06:44:43;6.25;;;3.75;;
74152;SDS011;62505;46.070;14.492;2023-06-10T06:47:12;6.22;;;3.97;;
74152;SDS011;62505;46.070;14.492;2023-06-10T06:49:39;4.50;;;3.53;;
74152;SDS011;62505;46.070;14.492;2023-06-10T06:52:06;7.00;;;4.13;;
74152;SDS011;62505;46.070;14.492;2023-06-10T06:54:33;6.35;;;3.67;;
74152;SDS011;62505;46.070;14.492;2023-06-10T06:57:00;7.43;;;3.90;;
74152;SDS011;62505;46.070;14.492;2023-06-10T06:59:27;5.00;;;3.50;;
74152;SDS011;62505;46.070;14.492;2023-06-10T07:01:54;6.90;;;3.75;;
74152;SDS011;62505;46.070;14.492;2023-06-10T07:04:22;4.88;;;3.80;;
74152;SDS011;62505;46.070;14.492;2023-06-10T07:06:49;9.35;;;4.25;;
74152;SDS011;62505;46.070;14.492;2023-06-10T07:09:16;4.30;;;3.50;;
74152;SDS011;62505;46.070;14.492;2023-06-10T07:11:43;5.72;;;3.40;;
74152;SDS011;62505;46.070;14.492;2023-06-10T07:14:10;6.07;;;3.63;;
74152;SDS011;62505;46.070;14.492;2023-06-10T07:16:37;9.80;;;3.65;;
74152;SDS011;62505;46.070;14.492;2023-06-10T07:19:03;3.88;;;3.35;;
74152;SDS011;62505;46.070;14.492;2023-06-10T07:21:32;5.97;;;3.70;;
74152;SDS011;62505;46.070;14.492;2023-06-10T07:23:59;4.43;;;3.45;;
74152;SDS011;62505;46.070;14.492;2023-06-10T07:26:26;3.70;;;3.20;;
74152;SDS011;62505;46.070;14.492;2023-06-10T07:28:53;6.88;;;3.20;;
74152;SDS011;62505;46.070;14.492;2023-06-10T07:31:20;7.97;;;4.13;;
74152;SDS011;62505;46.070;14.492;2023-06-10T07:33:47;3.35;;;2.85;;
74152;SDS011;62505;46.070;14.492;2023-06-10T07:36:13;3.78;;;3.38;;
74152;SDS011;62505;46.070;14.492;2023-06-10T07:38:42;4.32;;;3.08;;
74152;SDS011;62505;46.070;14.492;2023-06-10T07:41:09;4.22;;;3.33;;
74152;SDS011;62505;46.070;14.492;2023-06-10T07:43:36;4.63;;;3.38;;
74152;SDS011;62505;46.070;14.492;2023-06-10T07:46:03;4.97;;;3.60;;
74152;SDS011;62505;46.070;14.492;2023-06-10T07:48:31;4.75;;;3.35;;
74152;SDS011;62505;46.070;14.492;2023-06-10T07:50:58;4.70;;;3.35;;
74152;SDS011;62505;46.070;14.492;2023-06-10T07:53:25;4.30;;;3.40;;
74152;SDS011;62505;46.070;14.492;2023-06-10T07:55:53;3.75;;;3.22;;
74152;SDS011;62505;46.070;14.492;2023-06-10T07:58:20;4.57;;;3.33;;
74152;SDS011;62505;46.070;14.492;2023-06-10T08:00:47;4.55;;;3.22;;
74152;SDS011;62505;46.070;14.492;2023-06-10T08:03:14;5.50;;;3.60;;
74152;SDS011;62505;46.070;14.492;2023-06-10T08:05:41;4.90;;;3.60;;
74152;SDS011;62505;46.070;14.492;2023-06-10T08:08:08;5.15;;;3.60;;
74152;SDS011;62505;46.070;14.492;2023-06-10T08:10:35;5.07;;;3.53;;
74152;SDS011;62505;46.070;14.492;2023-06-10T08:13:03;5.80;;;3.63;;
74152;SDS011;62505;46.070;14.492;2023-06-10T08:15:30;5.97;;;3.72;;
74152;SDS011;62505;46.070;14.492;2023-06-10T08:17:57;5.78;;;3.80;;
74152;SDS011;62505;46.070;14.492;2023-06-10T08:20:24;4.28;;;3.17;;
74152;SDS011;62505;46.070;14.492;2023-06-10T08:22:51;4.55;;;3.67;;
74152;SDS011;62505;46.070;14.492;2023-06-10T08:25:18;5.28;;;3.50;;
74152;SDS011;62505;46.070;14.492;2023-06-10T08:27:46;5.22;;;3.08;;
74152;SDS011;62505;46.070;14.492;2023-06-10T08:30:14;3.95;;;3.50;;
74152;SDS011;62505;46.070;14.492;2023-06-10T08:32:41;4.70;;;3.67;;
74152;SDS011;62505;46.070;14.492;2023-06-10T08:35:08;4.72;;;3.47;;
74152;SDS011;62505;46.070;14.492;2023-06-10T08:37:35;5.05;;;3.78;;
74152;SDS011;62505;46.070;14.492;2023-06-10T08:40:03;4.43;;;3.72;;
74152;SDS011;62505;46.070;14.492;2023-06-10T08:42:33;3.80;;;3.40;;
74152;SDS011;62505;46.070;14.492;2023-06-10T08:45:03;3.78;;;3.38;;
74152;SDS011;62505;46.070;14.492;2023-06-10T08:47:32;4.90;;;3.53;;
74152;SDS011;62505;46.070;14.492;2023-06-10T08:50:02;3.95;;;3.55;;
74152;SDS011;62505;46.070;14.492;2023-06-10T08:52:33;4.43;;;3.90;;
74152;SDS011;62505;46.070;14.492;2023-06-10T08:55:03;6.75;;;3.80;;
74152;SDS011;62505;46.070;14.492;2023-06-10T08:57:35;7.72;;;3.85;;
74152;SDS011;62505;46.070;14.492;2023-06-10T09:00:03;6.80;;;3.70;;
74152;SDS011;62505;46.070;14.492;2023-06-10T09:02:33;5.18;;;3.97;;
74152;SDS011;62505;46.070;14.492;2023-06-10T09:05:01;5.07;;;3.67;;
74152;SDS011;62505;46.070;14.492;2023-06-10T09:07:29;7.05;;;4.15;;
74152;SDS011;62505;46.070;14.492;2023-06-10T09:09:59;6.65;;;3.83;;
74152;SDS011;62505;46.070;14.492;2023-06-10T09:12:30;4.75;;;3.50;;
74152;SDS011;62505;46.070;14.492;2023-06-10T09:14:56;5.00;;;3.75;;
74152;SDS011;62505;46.070;14.492;2023-06-10T09:17:23;7.82;;;4.28;;
74152;SDS011;62505;46.070;14.492;2023-06-10T09:19:52;4.40;;;3.47;;
74152;SDS011;62505;46.070;14.492;2023-06-10T09:22:20;4.57;;;3.63;;
74152;SDS011;62505;46.070;14.492;2023-06-10T09:24:48;5.40;;;3.38;;
74152;SDS011;62505;46.070;14.492;2023-06-10T09:27:14;4.43;;;3.40;;
74152;SDS011;62505;46.070;14.492;2023-06-10T09:29:45;6.53;;;3.70;;
74152;SDS011;62505;46.070;14.492;2023-06-10T09:32:13;4.78;;;3.63;;
74152;SDS011;62505;46.070;14.492;2023-06-10T09:34:39;4.32;;;3.92;;
74152;SDS011;62505;46.070;14.492;2023-06-10T09:37:08;4.70;;;3.78;;
74152;SDS011;62505;46.070;14.492;2023-06-10T09:39:38;5.18;;;3.65;;
74152;SDS011;62505;46.070;14.492;2023-06-10T09:42:15;5.03;;;3.95;;
74152;SDS011;62505;46.070;14.492;2023-06-10T09:44:48;5.50;;;4.00;;
74152;SDS011;62505;46.070;14.492;2023-06-10T09:47:19;6.25;;;4.20;;
74152;SDS011;62505;46.070;14.492;2023-06-10T09:49:46;4.15;;;3.75;;
74152;SDS011;62505;46.070;14.492;2023-06-10T09:52:14;5.90;;;4.05;;
74152;SDS011;62505;46.070;14.492;2023-06-10T09:54:47;6.32;;;3.65;;
74152;SDS011;62505;46.070;14.492;2023-06-10T09:57:14;4.80;;;3.70;;
74152;SDS011;62505;46.070;14.492;2023-06-10T09:59:43;9.73;;;4.22;;
74152;SDS011;62505;46.070;14.492;2023-06-10T10:02:13;4.97;;;3.85;;
74152;SDS011;62505;46.070;14.492;2023-06-10T10:04:40;4.85;;;3.83;;
74152;SDS011;62505;46.070;14.492;2023-06-10T10:07:08;4.78;;;4.25;;
74152;SDS011;62505;46.070;14.492;2023-06-10T10:09:36;4.75;;;3.97;;
74152;SDS011;62505;46.070;14.492;2023-06-10T10:12:04;5.82;;;3.72;;
74152;SDS011;62505;46.070;14.492;2023-06-10T10:14:36;4.20;;;3.40;;
74152;SDS011;62505;46.070;14.492;2023-06-10T10:17:04;4.13;;;3.65;;
74152;SDS011;62505;46.070;14.492;2023-06-10T10:19:36;4.18;;;3.40;;
74152;SDS011;62505;46.070;14.492;2023-06-10T10:22:10;5.38;;;4.20;;
74152;SDS011;62505;46.070;14.492;2023-06-10T10:24:44;4.85;;;3.80;;
74152;SDS011;62505;46.070;14.492;2023-06-10T10:27:17;4.95;;;3.40;;
74152;SDS011;62505;46.070;14.492;2023-06-10T10:29:47;5.40;;;3.22;;
74152;SDS011;62505;46.070;14.492;2023-06-10T10:32:17;3.75;;;3.22;;
74152;SDS011;62505;46.070;14.492;2023-06-10T10:34:48;6.97;;;3.60;;
74152;SDS011;62505;46.070;14.492;2023-06-10T10:37:20;4.47;;;3.55;;
74152;SDS011;62505;46.070;14.492;2023-06-10T10:39:48;6.82;;;3.50;;
74152;SDS011;62505;46.070;14.492;2023-06-10T10:42:16;5.13;;;3.63;;
74152;SDS011;62505;46.070;14.492;2023-06-10T10:44:44;4.93;;;3.85;;
74152;SDS011;62505;46.070;14.492;2023-06-10T10:47:12;4.95;;;3.20;;
74152;SDS011;62505;46.070;14.492;2023-06-10T10:49:43;3.55;;;3.03;;
74152;SDS011;62505;46.070;14.492;2023-06-10T10:52:12;3.90;;;3.53;;
74152;SDS011;62505;46.070;14.492;2023-06-10T10:54:43;4.43;;;3.38;;
74152;SDS011;62505;46.070;14.492;2023-06-10T10:57:16;3.95;;;3.22;;
74152;SDS011;62505;46.070;14.492;2023-06-10T10:59:53;4.18;;;3.50;;
74152;SDS011;62505;46.070;14.492;2023-06-10T11:05:08;4.00;;;3.35;;
74152;SDS011;62505;46.070;14.492;2023-06-10T11:07:36;4.60;;;3.80;;
74152;SDS011;62505;46.070;14.492;2023-06-10T11:10:08;3.13;;;2.83;;
74152;SDS011;62505;46.070;14.492;2023-06-10T11:12:44;4.10;;;3.72;;
74152;SDS011;62505;46.070;14.492;2023-06-10T11:15:17;5.18;;;3.47;;
74152;SDS011;62505;46.070;14.492;2023-06-10T11:23:24;3.83;;;3.42;;
74152;SDS011;62505;46.070;14.492;2023-06-10T11:26:15;3.95;;;3.55;;
74152;SDS011;62505;46.070;14.492;2023-06-10T11:29:09;3.58;;;3.28;;
74152;SDS011;62505;46.070;14.492;2023-06-10T11:31:38;5.72;;;3.75;;
74152;SDS011;62505;46.070;14.492;2023-06-10T11:34:07;5.63;;;3.65;;
74152;SDS011;62505;46.070;14.492;2023-06-10T11:36:36;3.88;;;3.20;;
74152;SDS011;62505;46.070;14.492;2023-06-10T11:39:05;4.80;;;3.70;;
74152;SDS011;62505;46.070;14.492;2023-06-10T11:41:33;3.80;;;3.13;;
74152;SDS011;62505;46.070;14.492;2023-06-10T11:44:02;3.83;;;3.17;;
74152;SDS011;62505;46.070;14.492;2023-06-10T11:46:31;3.70;;;3.30;;
74152;SDS011;62505;46.070;14.492;2023-06-10T11:48:58;4.25;;;3.83;;
74152;SDS011;62505;46.070;14.492;2023-06-10T11:51:27;3.95;;;3.33;;
74152;SDS011;62505;46.070;14.492;2023-06-10T11:53:55;4.35;;;3.80;;
74152;SDS011;62505;46.070;14.492;2023-06-10T11:56:22;4.50;;;4.07;;
74152;SDS011;62505;46.070;14.492;2023-06-10T11:58:54;4.30;;;3.90;;
74152;SDS011;62505;46.070;14.492;2023-06-10T12:01:22;4.75;;;3.67;;
74152;SDS011;62505;46.070;14.492;2023-06-10T12:03:57;4.95;;;3.85;;
74152;SDS011;62505;46.070;14.492;2023-06-10T12:06:25;5.47;;;3.78;;
74152;SDS011;62505;46.070;14.492;2023-06-10T12:08:53;4.75;;;3.70;;
74152;SDS011;62505;46.070;14.492;2023-06-10T12:11:21;4.78;;;3.80;;
74152;SDS011;62505;46.070;14.492;2023-06-10T12:13:49;4.32;;;3.90;;
74152;SDS011;62505;46.070;14.492;2023-06-10T12:16:16;4.75;;;3.58;;
74152;SDS011;62505;46.070;14.492;2023-06-10T12:18:44;5.32;;;4.40;;
74152;SDS011;62505;46.070;14.492;2023-06-10T12:21:23;4.45;;;4.00;;
74152;SDS011;62505;46.070;14.492;2023-06-10T12:24:00;5.00;;;3.95;;
74152;SDS011;62505;46.070;14.492;2023-06-10T12:26:35;4.57;;;4.15;;
74152;SDS011;62505;46.070;14.492;2023-06-10T12:29:12;4.60;;;4.00;;
74152;SDS011;62505;46.070;14.492;2023-06-10T12:31:57;3.90;;;3.53;;
74152;SDS011;62505;46.070;14.492;2023-06-10T12:34:31;4.63;;;3.70;;
74152;SDS011;62505;46.070;14.492;2023-06-10T12:37:02;4.18;;;3.75;;
74152;SDS011;62505;46.070;14.492;2023-06-10T12:39:30;7.10;;;4.35;;
74152;SDS011;62505;46.070;14.492;2023-06-10T12:41:57;4.72;;;4.32;;
74152;SDS011;62505;46.070;14.492;2023-06-10T12:44:32;4.63;;;4.03;;
74152;SDS011;62505;46.070;14.492;2023-06-10T12:46:59;5.97;;;4.15;;
74152;SDS011;62505;46.070;14.492;2023-06-10T12:49:26;4.53;;;4.05;;
74152;SDS011;62505;46.070;14.492;2023-06-10T12:51:53;4.95;;;4.15;;
74152;SDS011;62505;46.070;14.492;2023-06-10T12:54:22;4.25;;;3.85;;
74152;SDS011;62505;46.070;14.492;2023-06-10T12:56:49;5.35;;;4.15;;
74152;SDS011;62505;46.070;14.492;2023-06-10T12:59:16;6.80;;;3.97;;
74152;SDS011;62505;46.070;14.492;2023-06-10T13:01:43;5.00;;;3.90;;
74152;SDS011;62505;46.070;14.492;2023-06-10T13:04:15;4.70;;;3.80;;
74152;SDS011;62505;46.070;14.492;2023-06-10T13:06:43;4.32;;;3.92;;
74152;SDS011;62505;46.070;14.492;2023-06-10T13:09:12;5.13;;;4.13;;
74152;SDS011;62505;46.070;14.492;2023-06-10T13:11:40;5.40;;;4.68;;
74152;SDS011;62505;46.070;14.492;2023-06-10T13:14:07;4.25;;;3.83;;
74152;SDS011;62505;46.070;14.492;2023-06-10T13:16:34;4.93;;;4.43;;
74152;SDS011;62505;46.070;14.492;2023-06-10T13:19:03;4.93;;;3.95;;
74152;SDS011;62505;46.070;14.492;2023-06-10T13:21:30;4.65;;;4.15;;
74152;SDS011;62505;46.070;14.492;2023-06-10T13:23:58;4.80;;;3.95;;
74152;SDS011;62505;46.070;14.492;2023-06-10T13:26:24;5.45;;;4.50;;
74152;SDS011;62505;46.070;14.492;2023-06-10T13:28:53;4.70;;;4.13;;
74152;SDS011;62505;46.070;14.492;2023-06-10T13:31:22;5.05;;;4.15;;
74152;SDS011;62505;46.070;14.492;2023-06-10T13:33:50;5.43;;;4.43;;
74152;SDS011;62505;46.070;14.492;2023-06-10T13:36:17;4.78;;;4.15;;
74152;SDS011;62505;46.070;14.492;2023-06-10T13:38:44;5.10;;;4.22;;
74152;SDS011;62505;46.070;14.492;2023-06-10T13:41:12;6.18;;;4.00;;
74152;SDS011;62505;46.070;14.492;2023-06-10T13:43:39;4.45;;;3.97;;
74152;SDS011;62505;46.070;14.492;2023-06-10T13:46:07;3.92;;;3.58;;
74152;SDS011;62505;46.070;14.492;2023-06-10T13:48:34;4.47;;;4.05;;
74152;SDS011;62505;46.070;14.492;2023-06-10T13:51:01;4.55;;;4.00;;
74152;SDS011;62505;46.070;14.492;2023-06-10T13:53:28;5.05;;;4.07;;
74152;SDS011;62505;46.070;14.492;2023-06-10T13:57:46;4.97;;;4.32;;
74152;SDS011;62505;46.070;14.492;2023-06-10T14:00:13;5.35;;;4.25;;
74152;SDS011;62505;46.070;14.492;2023-06-10T14:02:41;4.97;;;4.25;;
74152;SDS011;62505;46.070;14.492;2023-06-10T14:05:08;5.10;;;4.45;;
74152;SDS011;62505;46.070;14.492;2023-06-10T14:07:35;7.50;;;4.80;;
74152;SDS011;62505;46.070;14.492;2023-06-10T14:10:03;5.25;;;4.18;;
74152;SDS011;62505;46.070;14.492;2023-06-10T14:12:30;5.97;;;4.35;;
74152;SDS011;62505;46.070;14.492;2023-06-10T14:14:58;4.43;;;4.03;;
74152;SDS011;62505;46.070;14.492;2023-06-10T14:17:25;5.50;;;4.22;;
74152;SDS011;62505;46.070;14.492;2023-06-10T14:19:52;4.70;;;4.20;;
74152;SDS011;62505;46.070;14.492;2023-06-10T14:22:19;5.82;;;4.70;;
74152;SDS011;62505;46.070;14.492;2023-06-10T14:24:46;5.28;;;4.20;;
74152;SDS011;62505;46.070;14.492;2023-06-10T14:27:13;5.00;;;4.20;;
74152;SDS011;62505;46.070;14.492;2023-06-10T14:29:40;4.18;;;3.75;;
74152;SDS011;62505;46.070;14.492;2023-06-10T14:32:08;4.38;;;3.97;;
74152;SDS011;62505;46.070;14.492;2023-06-10T14:34:35;4.65;;;3.88;;
74152;SDS011;62505;46.070;14.492;2023-06-10T14:37:04;4.40;;;4.00;;
74152;SDS011;62505;46.070;14.492;2023-06-10T14:39:32;5.10;;;4.38;;
74152;SDS011;62505;46.070;14.492;2023-06-10T14:41:59;4.40;;;4.00;;
74152;SDS011;62505;46.070;14.492;2023-06-10T14:44:26;4.65;;;4.07;;
74152;SDS011;62505;46.070;14.492;2023-06-10T14:46:53;4.43;;;3.90;;
74152;SDS011;62505;46.070;14.492;2023-06-10T14:49:21;4.65;;;4.13;;